Time;durP1;ratioP1;P1;durP2;ratioP2;P2;SDS_P1;SDS_P2;PMS_P1;PMS_P2;Temp;Humidity;BMP_temperature;BMP_pressure;BME280_temperature;BME280_humidity;BME280_pressure;Samples;Min_cycle;Max_cycle;Signal;HPM_P1;HPM_P2
2023/03/23 00:01:57;;;;;;;3.17;0.90;;;15.40;97.30;;;15.68;nan;99878.56;4973666;28;20635;-66
2023/03/23 00:04:26;;;;;;;1.13;1.13;;;15.30;97.40;;;15.66;nan;99881.38;4972327;28;20646;-65
2023/03/23 00:06:52;;;;;;;0.60;0.60;;;15.30;97.50;;;15.69;nan;99870.53;4971048;28;20259;-65
2023/03/23 00:09:23;;;;;;;1.07;0.90;;;15.30;97.50;;;15.69;nan;99881.06;4984527;28;20653;-64
2023/03/23 00:11:50;;;;;;;1.23;0.80;;;15.30;97.70;;;15.71;nan;99873.00;4999770;28;20626;-65
2023/03/23 00:14:22;;;;;;;1.20;0.80;;;15.40;97.80;;;15.71;nan;99876.47;4984946;28;20754;-64
2023/03/23 00:16:49;;;;;;;0.70;0.70;;;15.40;98.00;;;15.74;nan;99878.75;4991056;28;21199;-65
2023/03/23 00:19:16;;;;;;;0.70;0.70;;;15.40;98.10;;;15.71;nan;99868.56;4972507;28;20615;-64
2023/03/23 00:21:43;;;;;;;1.03;1.03;;;15.40;98.40;;;15.68;nan;99870.69;4988986;28;20619;-65
2023/03/23 00:24:15;;;;;;;2.20;0.73;;;15.40;98.70;;;15.70;nan;99866.91;4990413;28;20670;-65
2023/03/23 00:26:43;;;;;;;1.00;1.00;;;15.40;98.80;;;15.69;nan;99859.19;4972923;28;20634;-65
2023/03/23 00:29:16;;;;;;;1.13;0.97;;;15.40;99.00;;;15.68;nan;99854.91;4985913;28;20626;-65
2023/03/23 00:31:46;;;;;;;1.03;1.00;;;15.30;99.20;;;15.63;nan;99863.28;4989271;28;20634;-66
2023/03/23 00:34:18;;;;;;;1.13;0.80;;;15.30;99.40;;;15.61;nan;99861.81;4990602;28;20674;-65
2023/03/23 00:36:50;;;;;;;1.37;0.80;;;15.30;99.70;;;15.58;nan;99862.13;4971806;28;21308;-65
2023/03/23 00:39:17;;;;;;;0.80;0.80;;;15.20;99.80;;;15.59;nan;99863.78;4973064;28;20728;-65
2023/03/23 00:41:44;;;;;;;0.77;0.77;;;15.20;99.80;;;15.60;nan;99855.72;4990706;28;20611;-65
2023/03/23 00:44:16;;;;;;;0.80;0.80;;;15.30;99.90;;;15.59;nan;99858.53;4989981;28;20650;-65
2023/03/23 00:46:44;;;;;;;0.77;0.77;;;15.20;99.90;;;15.61;nan;99872.31;4990433;28;20784;-65
2023/03/23 00:49:24;;;;;;;0.60;0.60;;;15.30;99.90;;;15.63;nan;99867.72;4985196;28;20688;-65
2023/03/23 00:51:55;;;;;;;0.50;0.50;;;15.30;99.90;;;15.58;nan;99856.84;4990151;28;20630;-65
2023/03/23 00:54:23;;;;;;;0.67;0.67;;;15.30;99.90;;;15.59;nan;99859.31;4969939;28;20678;-65
2023/03/23 00:56:50;;;;;;;0.57;0.57;;;15.30;99.90;;;15.63;nan;99858.00;4970675;28;20702;-64
2023/03/23 00:59:17;;;;;;;1.13;1.13;;;15.30;99.90;;;15.58;nan;99848.97;4967216;28;20619;-65
2023/03/23 01:01:43;;;;;;;0.60;0.60;;;15.20;99.90;;;15.58;nan;99843.72;4991533;28;20606;-65
2023/03/23 01:04:11;;;;;;;1.60;1.00;;;15.20;99.90;;;15.51;nan;99841.72;4973078;28;20689;-65
2023/03/23 01:06:40;;;;;;;1.43;0.83;;;15.20;99.90;;;15.49;nan;99835.81;4991236;28;20598;-63
2023/03/23 01:09:10;;;;;;;0.53;0.53;;;15.10;99.90;;;15.46;nan;99832.69;4988970;28;20730;-65
2023/03/23 01:11:37;;;;;;;0.50;0.50;;;15.10;99.90;;;15.45;nan;99837.13;4989786;28;21027;-62
2023/03/23 01:14:03;;;;;;;1.87;1.10;;;15.10;99.90;;;15.48;nan;99842.03;5014585;23;20700;-67
2023/03/23 01:16:29;;;;;;;0.70;0.70;;;15.10;99.90;;;15.44;nan;99839.88;5001248;28;20630;-67
2023/03/23 01:18:55;;;;;;;0.50;0.50;;;15.10;99.90;;;15.44;nan;99843.34;5003477;28;20622;-65
2023/03/23 01:21:21;;;;;;;2.50;0.60;;;15.10;99.90;;;15.45;nan;99844.19;5014177;28;20577;-65
2023/03/23 01:23:48;;;;;;;1.30;0.80;;;15.10;99.90;;;15.45;nan;99831.88;5005346;28;20661;-65
2023/03/23 01:26:23;;;;;;;0.97;0.97;;;15.10;99.90;;;15.44;nan;99832.81;4993658;28;20630;-65
2023/03/23 01:28:49;;;;;;;1.17;1.07;;;15.10;99.90;;;15.42;nan;99824.25;4993365;28;20708;-66
2023/03/23 01:31:19;;;;;;;1.00;1.00;;;15.10;99.90;;;15.41;nan;99819.16;4988983;28;21188;-66
2023/03/23 01:33:46;;;;;;;1.03;0.50;;;15.10;99.90;;;15.40;nan;99813.06;4992908;28;20658;-65
2023/03/23 01:36:20;;;;;;;0.83;0.83;;;15.10;99.90;;;15.42;nan;99807.66;4985538;28;20662;-65
2023/03/23 01:38:47;;;;;;;0.77;0.63;;;15.10;99.90;;;15.40;nan;99812.25;4986162;28;20717;-66
2023/03/23 01:41:15;;;;;;;0.57;0.57;;;15.10;99.90;;;15.40;nan;99814.88;4981380;28;20627;-66
2023/03/23 01:44:16;;;;;;;0.70;0.70;;;15.10;99.90;;;15.39;nan;99821.13;4991770;28;20650;-66
2023/03/23 01:46:43;;;;;;;1.00;1.00;;;15.10;99.90;;;15.36;nan;99810.94;4960797;28;21271;-66
2023/03/23 01:49:43;;;;;;;0.70;0.70;;;15.00;99.90;;;15.27;nan;99812.72;4985462;28;20645;-66
2023/03/23 01:52:29;;;;;;;0.83;0.70;;;14.90;99.90;;;15.31;nan;99800.09;4999078;28;20624;-66
2023/03/23 01:54:57;;;;;;;0.70;0.70;;;15.00;99.90;;;15.31;nan;99787.75;4975733;28;20667;-66
2023/03/23 01:57:29;;;;;;;0.60;0.60;;;15.00;99.90;;;15.35;nan;99786.44;4973360;28;20603;-66
2023/03/23 01:59:58;;;;;;;0.80;0.80;;;15.00;99.90;;;15.36;nan;99801.25;4974777;28;20612;-66
2023/03/23 02:02:26;;;;;;;1.40;0.90;;;15.10;99.90;;;15.36;nan;99795.97;5005112;28;20634;-66
2023/03/23 02:04:58;;;;;;;0.40;0.40;;;15.10;99.90;;;15.36;nan;99803.03;4960772;28;20651;-66
2023/03/23 02:07:24;;;;;;;9.03;0.80;;;15.10;99.90;;;15.30;nan;99806.31;5002236;28;20638;-65
2023/03/23 02:09:51;;;;;;;0.80;0.80;;;15.00;99.90;;;15.31;nan;99806.16;4989402;28;21089;-66
2023/03/23 02:12:17;;;;;;;0.80;0.80;;;15.00;99.90;;;15.26;nan;99815.50;4982596;28;20631;-66
2023/03/23 02:14:43;;;;;;;0.50;0.50;;;14.90;99.90;;;15.24;nan;99806.97;4955914;28;20702;-66
2023/03/23 02:17:21;;;;;;;0.60;0.60;;;14.90;99.90;;;15.22;nan;99804.50;4979483;28;20737;-66
2023/03/23 02:20:37;;;;;;;0.50;0.50;;;14.90;99.90;;;15.25;nan;99796.28;4988915;28;20249;-66
2023/03/23 02:23:31;;;;;;;0.60;0.60;;;14.90;99.90;;;15.19;nan;99794.28;4984499;28;20669;-66
2023/03/23 02:26:05;;;;;;;0.70;0.70;;;14.90;99.90;;;15.16;nan;99794.59;4987655;28;21002;-66
2023/03/23 02:29:11;;;;;;;0.70;0.70;;;14.90;99.90;;;15.17;nan;99793.63;4972863;28;21231;-66
2023/03/23 02:32:12;;;;;;;1.27;1.27;;;14.90;99.90;;;15.19;nan;99786.41;4972421;28;20599;-66
2023/03/23 02:34:53;;;;;;;0.80;0.80;;;14.90;99.90;;;15.21;nan;99779.19;4972876;28;20671;-66
2023/03/23 02:37:36;;;;;;;0.67;0.67;;;14.90;99.90;;;15.20;nan;99774.94;4978442;28;21269;-66
2023/03/23 02:40:16;;;;;;;1.53;0.70;;;14.90;99.90;;;15.19;nan;99767.19;4991865;28;20633;-66
2023/03/23 02:42:45;;;;;;;0.70;0.70;;;14.90;99.90;;;15.17;nan;99761.28;5006123;28;21278;-65
2023/03/23 02:45:13;;;;;;;0.80;0.80;;;14.90;99.90;;;15.17;nan;99761.28;4975362;28;20750;-66
2023/03/23 02:47:41;;;;;;;0.80;0.70;;;14.80;99.90;;;15.14;nan;99759.78;4971226;28;20968;-65
2023/03/23 02:50:12;;;;;;;0.80;0.80;;;14.80;99.90;;;15.15;nan;99761.44;4973810;28;20723;-66
2023/03/23 02:52:41;;;;;;;0.60;0.60;;;14.80;99.90;;;15.13;nan;99771.28;4989099;28;20634;-66
2023/03/23 02:55:11;;;;;;;1.77;0.83;;;14.80;99.90;;;15.16;nan;99764.91;4990965;28;21050;-66
2023/03/23 02:57:38;;;;;;;0.77;0.77;;;14.80;99.90;;;15.16;nan;99776.22;4985125;28;20634;-66
2023/03/23 03:00:09;;;;;;;0.73;0.73;;;14.90;99.90;;;15.14;nan;99767.66;4973683;28;20658;-66
2023/03/23 03:02:40;;;;;;;2.83;0.97;;;14.80;99.90;;;15.11;nan;99767.16;4980234;28;20640;-66
2023/03/23 03:05:25;;;;;;;0.63;0.63;;;14.80;99.90;;;15.11;nan;99754.88;4991925;28;20634;-66
2023/03/23 03:08:13;;;;;;;0.90;0.90;;;14.80;99.90;;;15.10;nan;99763.72;4991485;28;20623;-66
2023/03/23 03:11:04;;;;;;;0.83;0.83;;;14.80;99.90;;;15.10;nan;99761.09;4992769;28;20621;-65
2023/03/23 03:13:52;;;;;;;0.80;0.80;;;14.80;99.90;;;15.04;nan;99758.28;4990319;28;21307;-65
2023/03/23 03:16:49;;;;;;;0.80;0.80;;;14.70;99.90;;;14.94;nan;99742.66;4991123;28;20669;-66
2023/03/23 03:19:22;;;;;;;0.80;0.60;;;14.60;99.90;;;14.95;nan;99752.16;4991325;28;20634;-67
2023/03/23 03:21:50;;;;;;;0.83;0.73;;;14.60;99.90;;;14.98;nan;99754.50;4992599;28;21222;-65
2023/03/23 03:24:19;;;;;;;0.83;0.83;;;14.70;99.90;;;14.99;nan;99748.25;5007481;28;20685;-68
2023/03/23 03:26:48;;;;;;;0.70;0.70;;;14.70;99.90;;;15.02;nan;99749.72;4992492;28;20629;-65
2023/03/23 03:29:26;;;;;;;0.73;0.70;;;14.70;99.90;;;15.00;nan;99749.06;4991943;28;20698;-66
2023/03/23 03:31:56;;;;;;;1.10;0.90;;;14.70;99.90;;;15.02;nan;99757.63;4981733;28;20730;-66
2023/03/23 03:34:23;;;;;;;0.80;0.80;;;14.70;99.90;;;15.03;nan;99757.47;4972924;28;21041;-67
2023/03/23 03:36:54;;;;;;;0.87;0.87;;;14.70;99.90;;;15.05;nan;99750.25;4971130;28;20603;-65
2023/03/23 03:39:21;;;;;;;0.73;0.73;;;14.70;99.90;;;15.07;nan;99743.03;4983889;28;20671;-68
2023/03/23 03:41:48;;;;;;;1.23;0.93;;;14.80;99.90;;;15.08;nan;99752.53;4991106;28;21216;-67
2023/03/23 03:44:14;;;;;;;1.10;0.70;;;14.80;99.90;;;15.10;nan;99747.16;4990626;28;20651;-67
2023/03/23 03:46:40;;;;;;;0.80;0.80;;;14.80;99.90;;;15.12;nan;99751.25;4992223;28;20723;-67
2023/03/23 03:49:10;;;;;;;0.90;0.90;;;14.80;99.90;;;15.10;nan;99752.41;4998067;28;20726;-67
2023/03/23 03:51:36;;;;;;;6.37;0.70;;;14.80;99.90;;;15.10;nan;99757.66;4992000;28;21269;-67
2023/03/23 03:54:02;;;;;;;1.00;0.90;;;14.80;99.90;;;15.11;nan;99754.88;4991350;28;20634;-67
2023/03/23 03:56:28;;;;;;;1.70;0.80;;;14.80;99.90;;;15.15;nan;99755.34;4991635;28;21011;-67
2023/03/23 03:58:54;;;;;;;0.80;0.80;;;14.80;99.90;;;15.20;nan;99753.91;4991512;28;20603;-66
2023/03/23 04:01:24;;;;;;;0.97;0.97;;;14.90;99.90;;;15.26;nan;99750.63;4987505;28;20668;-67
2023/03/23 04:03:51;;;;;;;1.60;1.50;;;15.00;99.90;;;15.30;nan;99748.50;4995720;28;20309;-67
2023/03/23 04:06:17;;;;;;;7.13;1.60;;;15.00;99.90;;;15.32;nan;99763.13;4989963;28;20614;-67
2023/03/23 04:08:44;;;;;;;1.33;1.23;;;15.00;99.90;;;15.31;nan;99755.41;4990018;28;20646;-67
2023/03/23 04:11:13;;;;;;;1.40;1.30;;;15.00;99.90;;;15.33;nan;99748.97;4991460;28;20629;-66
2023/03/23 04:13:39;;;;;;;1.00;1.00;;;15.00;99.90;;;15.40;nan;99749.16;5005344;28;20630;-67
2023/03/23 04:16:06;;;;;;;1.50;1.50;;;15.10;99.90;;;15.43;nan;99751.50;4991789;28;20654;-67
2023/03/23 04:18:33;;;;;;;1.70;1.60;;;15.10;99.90;;;15.44;nan;99751.34;4987188;28;20622;-66
2023/03/23 04:21:01;;;;;;;1.80;1.70;;;15.10;99.90;;;15.43;nan;99754.97;4984459;28;20626;-67
2023/03/23 04:23:30;;;;;;;1.40;1.40;;;15.10;99.90;;;15.43;nan;99768.13;4990477;28;20630;-67
2023/03/23 04:25:57;;;;;;;1.40;1.40;;;15.10;99.90;;;15.41;nan;99770.06;4989696;28;20622;-67
2023/03/23 04:28:24;;;;;;;1.50;1.40;;;15.10;99.90;;;15.41;nan;99772.69;4991041;28;20693;-66
2023/03/23 04:30:55;;;;;;;1.40;1.40;;;15.10;99.90;;;15.39;nan;99776.44;4991564;28;21204;-66
2023/03/23 04:33:26;;;;;;;1.50;1.50;;;15.10;99.90;;;15.37;nan;99791.56;4971839;28;20634;-66
2023/03/23 04:35:56;;;;;;;1.97;1.40;;;15.10;99.90;;;15.34;nan;99787.44;4993496;28;20669;-67
2023/03/23 04:38:24;;;;;;;1.80;1.70;;;15.00;99.90;;;15.32;nan;99778.91;4990980;28;20626;-67
2023/03/23 04:40:52;;;;;;;1.70;1.60;;;15.10;99.90;;;15.32;nan;99780.69;4988738;28;20626;-67
2023/03/23 04:43:21;;;;;;;1.97;1.87;;;15.10;99.90;;;15.33;nan;99793.66;4995560;28;20613;-67
2023/03/23 04:45:59;;;;;;;1.80;1.70;;;15.10;99.90;;;15.30;nan;99791.38;4998280;28;20656;-67
2023/03/23 04:48:29;;;;;;;1.47;1.43;;;15.10;99.90;;;15.30;nan;99794.00;4996534;28;20646;-67
2023/03/23 04:50:57;;;;;;;1.43;1.33;;;15.00;99.90;;;15.31;nan;99798.25;4993120;28;20631;-67
2023/03/23 04:53:22;;;;;;;1.53;1.53;;;15.00;99.90;;;15.28;nan;99801.22;4996723;28;20638;-67
2023/03/23 04:55:49;;;;;;;0.93;0.93;;;15.00;99.90;;;15.28;nan;99790.72;4988367;28;20698;-67
2023/03/23 04:58:16;;;;;;;1.50;1.50;;;15.00;99.90;;;15.29;nan;99800.22;4977059;28;20278;-67
2023/03/23 05:00:49;;;;;;;0.97;0.97;;;15.10;99.90;;;15.25;nan;99793.66;4983441;28;20711;-66
2023/03/23 05:03:16;;;;;;;1.50;1.40;;;15.00;99.90;;;15.23;nan;99793.00;4996036;28;20716;-67
2023/03/23 05:05:47;;;;;;;1.80;1.30;;;15.00;99.90;;;15.24;nan;99807.78;4989159;28;20670;-67
2023/03/23 05:08:15;;;;;;;2.97;1.40;;;15.00;99.90;;;15.22;nan;99812.38;4977510;28;20637;-66
2023/03/23 05:10:41;;;;;;;1.83;1.73;;;15.00;99.90;;;15.26;nan;99812.88;4988466;28;21207;-67
2023/03/23 05:13:07;;;;;;;2.40;1.23;;;15.00;99.90;;;15.27;nan;99825.84;4996343;28;20658;-67
2023/03/23 05:15:33;;;;;;;1.57;1.47;;;15.00;99.90;;;15.28;nan;99824.88;4990828;28;20671;-66
2023/03/23 05:17:58;;;;;;;1.13;0.93;;;15.00;99.90;;;15.30;nan;99830.78;4975501;28;20216;-65
2023/03/23 05:20:24;;;;;;;0.97;0.97;;;15.00;99.90;;;15.28;nan;99824.06;4996779;28;20207;-66
2023/03/23 05:22:51;;;;;;;2.60;1.33;;;15.00;99.90;;;15.27;nan;99823.22;4996762;28;20693;-66
2023/03/23 05:25:20;;;;;;;1.30;1.20;;;15.00;99.90;;;15.26;nan;99837.34;4995995;28;20704;-67
2023/03/23 05:27:52;;;;;;;0.83;0.83;;;15.00;99.90;;;15.26;nan;99828.66;4989402;28;20647;-66
2023/03/23 05:30:20;;;;;;;0.83;0.80;;;15.00;99.90;;;15.27;nan;99828.47;4977290;28;20682;-66
2023/03/23 05:32:50;;;;;;;1.00;1.00;;;15.00;99.90;;;15.35;nan;99811.94;4991138;28;20642;-66
2023/03/23 05:35:17;;;;;;;1.00;1.00;;;15.10;99.90;;;15.35;nan;99817.97;4996791;28;20776;-66
2023/03/23 05:37:44;;;;;;;0.90;0.87;;;15.10;99.90;;;15.35;nan;99817.19;4994371;28;20602;-67
2023/03/23 05:40:11;;;;;;;0.70;0.70;;;15.10;99.90;;;15.31;nan;99816.66;4997242;28;20701;-66
2023/03/23 05:42:40;;;;;;;2.40;0.67;;;15.00;99.90;;;15.29;nan;99808.13;4996991;28;20713;-66
2023/03/23 05:45:09;;;;;;;1.17;1.17;;;15.00;99.90;;;15.25;nan;99819.94;4994924;28;20673;-67
2023/03/23 05:47:36;;;;;;;0.83;0.83;;;15.00;99.90;;;15.21;nan;99815.16;4983350;28;21282;-67
2023/03/23 05:50:02;;;;;;;0.80;0.80;;;14.90;99.90;;;15.18;nan;99824.16;4991354;28;20656;-67
2023/03/23 05:52:28;;;;;;;0.90;0.90;;;14.90;99.90;;;15.18;nan;99823.38;4993528;28;20737;-67
2023/03/23 05:54:54;;;;;;;0.90;0.90;;;14.90;99.90;;;15.20;nan;99843.25;4993104;28;20745;-66
2023/03/23 05:57:21;;;;;;;1.00;1.00;;;14.90;99.90;;;15.23;nan;99826.31;4993204;28;20200;-66
2023/03/23 05:59:48;;;;;;;0.70;0.70;;;14.90;99.90;;;15.21;nan;99825.66;4994824;28;20278;-66
2023/03/23 06:02:14;;;;;;;0.60;0.60;;;15.00;99.90;;;15.21;nan;99834.38;4993129;28;20633;-66
2023/03/23 06:04:40;;;;;;;1.10;1.10;;;15.00;99.90;;;15.20;nan;99827.50;4998387;28;21055;-66
2023/03/23 06:07:12;;;;;;;0.77;0.77;;;14.90;99.90;;;15.19;nan;99838.97;4979109;28;20713;-66
2023/03/23 06:09:38;;;;;;;0.80;0.80;;;14.90;99.90;;;15.21;nan;99841.44;4979959;28;20639;-66
2023/03/23 06:12:04;;;;;;;0.90;0.90;;;14.90;99.90;;;15.22;nan;99846.53;4973866;28;20599;-67
2023/03/23 06:14:31;;;;;;;1.17;0.90;;;14.90;99.90;;;15.24;nan;99846.38;4997776;28;20710;-66
2023/03/23 06:16:57;;;;;;;1.90;0.90;;;15.00;99.90;;;15.27;nan;99844.25;4990787;28;20672;-67
2023/03/23 06:19:23;;;;;;;1.00;1.00;;;15.00;99.90;;;15.27;nan;99851.28;5005742;28;20665;-67
2023/03/23 06:21:49;;;;;;;0.70;0.70;;;15.00;99.90;;;15.29;nan;99852.00;4991896;28;20662;-67
2023/03/23 06:24:15;;;;;;;0.70;0.70;;;15.00;99.90;;;15.32;nan;99857.75;4987113;28;20653;-67
2023/03/23 06:26:41;;;;;;;1.00;0.70;;;15.00;99.90;;;15.34;nan;99862.84;4980981;28;20647;-66
2023/03/23 06:29:17;;;;;;;0.90;0.90;;;15.10;99.90;;;15.33;nan;99858.56;4980605;28;21242;-66
2023/03/23 06:31:54;;;;;;;1.10;1.10;;;15.10;99.90;;;15.32;nan;99864.78;4990999;28;20287;-66
2023/03/23 06:34:20;;;;;;;1.00;1.00;;;15.10;99.90;;;15.32;nan;99864.78;4986734;28;20696;-66
2023/03/23 06:36:46;;;;;;;0.97;0.93;;;15.00;99.90;;;15.32;nan;99867.44;4990495;28;20737;-66
2023/03/23 06:39:13;;;;;;;4.23;1.03;;;15.10;99.90;;;15.34;nan;99866.28;4990516;28;20634;-67
2023/03/23 06:41:39;;;;;;;0.80;0.80;;;15.10;99.90;;;15.35;nan;99862.66;4986321;28;20844;-67
2023/03/23 06:44:06;;;;;;;0.80;0.80;;;15.10;99.90;;;15.35;nan;99883.69;4991438;28;20797;-65
2023/03/23 06:46:32;;;;;;;1.50;1.00;;;15.10;99.90;;;15.35;nan;99878.44;5009051;28;21199;-66
2023/03/23 06:48:58;;;;;;;1.00;1.00;;;15.10;99.90;;;15.36;nan;99885.34;4990956;28;20623;-66
2023/03/23 06:51:24;;;;;;;1.10;1.10;;;15.10;99.90;;;15.38;nan;99887.81;4992369;28;21229;-66
2023/03/23 06:53:50;;;;;;;0.73;0.73;;;15.10;99.90;;;15.37;nan;99897.53;5006990;28;20682;-66
2023/03/23 06:56:16;;;;;;;0.70;0.70;;;15.10;99.90;;;15.39;nan;99892.09;4991948;28;20708;-66
2023/03/23 06:58:42;;;;;;;0.70;0.70;;;15.20;99.90;;;15.35;nan;99902.09;4991688;28;20638;-66
2023/03/23 07:01:09;;;;;;;0.80;0.40;;;15.10;99.90;;;15.31;nan;99903.38;4993144;28;20677;-66
2023/03/23 07:03:36;;;;;;;1.63;1.53;;;15.10;99.90;;;15.29;nan;99910.59;4991418;28;20726;-68
2023/03/23 07:06:03;;;;;;;0.80;0.80;;;15.00;99.90;;;15.28;nan;99908.97;5006102;28;20622;-65
2023/03/23 07:08:30;;;;;;;0.70;0.70;;;15.00;99.90;;;15.28;nan;99914.25;4991415;28;20635;-65
2023/03/23 07:10:56;;;;;;;0.80;0.80;;;15.00;99.90;;;15.25;nan;99900.56;4991811;28;20621;-68
2023/03/23 07:13:25;;;;;;;0.63;0.63;;;15.00;99.90;;;15.19;nan;99906.47;4987108;28;20666;-67
2023/03/23 07:15:50;;;;;;;1.10;1.10;;;14.90;99.90;;;15.19;nan;99915.16;4988963;23;20921;-64
2023/03/23 07:18:16;;;;;;;1.03;0.97;;;14.90;99.90;;;15.18;nan;99912.72;4967240;28;20631;-62
2023/03/23 07:20:42;;;;;;;1.00;1.00;;;14.90;99.90;;;15.15;nan;99895.44;4963403;28;21000;-63
2023/03/23 07:23:08;;;;;;;1.13;1.07;;;14.90;99.90;;;15.19;nan;99899.41;4971983;28;20616;-64
2023/03/23 07:25:36;;;;;;;0.90;0.90;;;14.90;99.90;;;15.24;nan;99906.81;4962884;28;20232;-61
2023/03/23 07:28:03;;;;;;;1.00;1.00;;;15.00;99.90;;;15.22;nan;99903.53;4969441;28;20736;-64
2023/03/23 07:30:29;;;;;;;0.70;0.70;;;15.00;99.90;;;15.20;nan;99905.50;4971513;28;21436;-64
2023/03/23 07:32:58;;;;;;;0.90;0.90;;;15.00;99.90;;;15.19;nan;99919.59;4966690;28;20621;-66
2023/03/23 07:35:25;;;;;;;0.37;0.37;;;14.90;99.90;;;15.20;nan;99922.09;4962214;28;20808;-64
2023/03/23 07:37:52;;;;;;;0.73;0.73;;;14.90;99.90;;;15.16;nan;99927.81;4970585;28;21223;-65
2023/03/23 07:40:18;;;;;;;0.87;0.87;;;14.90;99.90;;;15.12;nan;99921.22;4971399;28;20751;-63
2023/03/23 07:42:54;;;;;;;1.00;1.00;;;14.90;99.90;;;15.09;nan;99922.34;4973027;28;21286;-65
2023/03/23 07:45:21;;;;;;;0.80;0.80;;;14.80;99.90;;;15.04;nan;99929.88;4986120;28;20731;-64
2023/03/23 07:47:47;;;;;;;0.80;0.80;;;14.80;99.90;;;14.99;nan;99937.38;4972555;28;20726;-64
2023/03/23 07:50:13;;;;;;;0.77;0.77;;;14.80;99.90;;;14.99;nan;99941.84;4971361;28;20674;-64
2023/03/23 07:52:41;;;;;;;2.00;1.10;;;14.70;99.90;;;15.00;nan;99941.66;4972226;28;20746;-64
2023/03/23 07:55:11;;;;;;;0.70;0.70;;;14.70;99.90;;;15.01;nan;99945.13;4971033;28;21139;-64
2023/03/23 07:57:37;;;;;;;0.70;0.70;;;14.70;99.90;;;15.04;nan;99927.25;4971573;28;20627;-64
2023/03/23 08:00:19;;;;;;;0.63;0.63;;;14.80;99.90;;;15.08;nan;99944.34;4971601;28;20600;-64
2023/03/23 08:02:51;;;;;;;0.87;0.87;;;14.80;99.90;;;15.10;nan;99946.84;4972661;28;20603;-64
2023/03/23 08:05:18;;;;;;;0.80;0.80;;;14.80;99.90;;;15.09;nan;99955.69;4970978;28;20631;-63
2023/03/23 08:07:44;;;;;;;0.60;0.60;;;14.80;99.90;;;15.10;nan;99952.88;4970765;28;21204;-66
2023/03/23 08:10:12;;;;;;;0.90;0.90;;;14.80;99.90;;;15.10;nan;99950.25;4971956;28;20750;-66
2023/03/23 08:12:41;;;;;;;1.10;1.00;;;14.90;99.90;;;15.06;nan;99962.06;4971379;28;20616;-63
2023/03/23 08:15:12;;;;;;;0.70;0.70;;;14.80;99.90;;;14.99;nan;99953.13;4971849;28;20667;-65
2023/03/23 08:17:39;;;;;;;1.00;1.00;;;14.70;99.90;;;14.99;nan;99947.88;4971185;28;20703;-64
2023/03/23 08:20:10;;;;;;;0.80;0.80;;;14.70;99.90;;;14.96;nan;99960.50;4971137;28;20674;-65
2023/03/23 08:22:38;;;;;;;1.00;1.00;;;14.70;99.90;;;14.96;nan;99963.97;4971542;28;20710;-65
2023/03/23 08:25:06;;;;;;;0.90;0.90;;;14.70;99.90;;;14.94;nan;99963.31;4969807;28;20647;-65
2023/03/23 08:27:33;;;;;;;2.07;1.13;;;14.70;99.90;;;14.94;nan;99968.56;4971833;28;20627;-64
2023/03/23 08:29:59;;;;;;;0.90;0.90;;;14.70;99.90;;;14.93;nan;99968.72;4971827;28;20643;-61
2023/03/23 08:32:26;;;;;;;1.13;1.13;;;14.70;99.90;;;14.94;nan;99971.19;4972026;28;20923;-64
2023/03/23 08:34:52;;;;;;;0.97;0.97;;;14.70;99.90;;;14.97;nan;99976.13;4969898;28;20706;-64
2023/03/23 08:37:19;;;;;;;0.90;0.90;;;14.70;99.90;;;14.99;nan;99976.78;4982786;28;20667;-64
2023/03/23 08:39:44;;;;;;;0.60;0.60;;;14.70;99.90;;;15.01;nan;99984.53;4969311;28;20628;-62
2023/03/23 08:42:11;;;;;;;0.53;0.53;;;14.80;99.90;;;15.06;nan;99982.25;4970741;28;21008;-64
2023/03/23 08:44:37;;;;;;;0.50;0.50;;;14.80;99.90;;;15.10;nan;99989.66;4966999;28;20686;-62
2023/03/23 08:47:05;;;;;;;0.90;0.90;;;14.90;99.90;;;15.10;nan;99988.88;4971021;28;20604;-64
2023/03/23 08:49:34;;;;;;;0.70;0.70;;;14.90;99.90;;;15.10;nan;99987.03;4969694;28;20651;-63
2023/03/23 08:52:00;;;;;;;0.80;0.80;;;14.80;99.90;;;15.06;nan;99990.97;4970690;28;20640;-64
2023/03/23 08:54:26;;;;;;;0.90;0.90;;;14.80;99.90;;;15.05;nan;99997.22;4969223;28;20675;-64
2023/03/23 08:56:52;;;;;;;0.93;0.93;;;14.80;99.90;;;15.10;nan;99994.91;4967814;28;21220;-63
2023/03/23 08:59:18;;;;;;;2.00;1.00;;;14.80;99.90;;;15.20;nan;100000.09;4972509;28;20192;-60
2023/03/23 09:01:44;;;;;;;0.57;0.57;;;14.90;99.90;;;15.38;nan;100009.56;4970659;28;20638;-63
2023/03/23 09:04:10;;;;;;;0.80;0.80;;;15.10;99.90;;;15.54;nan;99993.88;4951304;28;20236;-62
2023/03/23 09:06:38;;;;;;;0.60;0.60;;;15.20;99.90;;;15.71;nan;100000.06;4961037;28;20678;-66
2023/03/23 09:09:08;;;;;;;1.03;0.50;;;15.40;99.90;;;15.91;nan;100003.25;4971497;28;20196;-65
2023/03/23 09:11:36;;;;;;;0.77;0.77;;;15.60;99.90;;;16.10;nan;100009.06;4970541;28;20639;-64
2023/03/23 09:14:04;;;;;;;0.80;0.80;;;15.80;99.90;;;16.29;nan;100000.88;4981707;28;20643;-64
2023/03/23 09:16:31;;;;;;;0.60;0.60;;;16.00;99.90;;;16.47;nan;100019.19;4970084;28;20682;-65
2023/03/23 09:18:56;;;;;;;0.60;0.60;;;16.10;99.90;;;16.55;nan;100021.84;4969184;28;21219;-64
2023/03/23 09:21:27;;;;;;;0.80;0.80;;;16.20;99.90;;;16.57;nan;100027.78;4970305;28;20727;-61
2023/03/23 09:23:56;;;;;;;1.20;1.10;;;16.30;99.90;;;16.61;nan;100031.75;4970216;28;20200;-64
2023/03/23 09:26:22;;;;;;;2.60;0.70;;;16.30;99.90;;;16.60;nan;100024.84;4969412;28;21161;-66
2023/03/23 09:28:48;;;;;;;0.90;0.90;;;16.30;99.90;;;16.59;nan;100025.00;4972102;28;20623;-65
2023/03/23 09:31:14;;;;;;;0.47;0.47;;;16.30;99.90;;;16.58;nan;100033.88;4973848;28;20206;-64
2023/03/23 09:33:39;;;;;;;1.67;0.60;;;16.30;99.90;;;16.50;nan;100039.16;4976031;28;20204;-65
2023/03/23 09:36:08;;;;;;;0.60;0.60;;;16.30;99.90;;;16.41;nan;100038.28;4974731;28;20262;-62
2023/03/23 09:38:34;;;;;;;0.93;0.60;;;16.20;99.90;;;16.41;nan;100054.06;4975372;28;20199;-65
2023/03/23 09:41:21;;;;;;;0.60;0.60;;;16.20;99.90;;;16.40;nan;100048.97;4974510;28;21172;-64
2023/03/23 09:44:17;;;;;;;0.43;0.43;;;16.10;99.90;;;16.25;nan;100043.47;4974873;28;20662;-64
2023/03/23 09:47:40;;;;;;;0.60;0.60;;;16.00;99.90;;;16.03;nan;100051.97;4972856;28;21164;-64
2023/03/23 09:50:15;;;;;;;0.50;0.50;;;15.80;99.90;;;15.96;nan;100053.59;4933848;29;21238;-65
2023/03/23 09:53:15;;;;;;;0.50;0.40;;;15.70;99.90;;;15.94;nan;100043.22;4889318;29;20831;-64
2023/03/23 09:55:42;;;;;;;0.80;0.80;;;15.70;99.90;;;15.86;nan;100051.09;4954749;28;20678;-63
2023/03/23 09:58:20;;;;;;;0.77;0.77;;;15.60;99.90;;;15.79;nan;100044.81;4973393;28;21220;-65
2023/03/23 10:00:58;;;;;;;0.80;0.80;;;15.60;99.90;;;15.78;nan;100050.25;4973154;28;20631;-65
2023/03/23 10:03:37;;;;;;;1.10;1.00;;;15.50;99.90;;;15.76;nan;100057.47;4972790;28;20742;-65
2023/03/23 10:06:04;;;;;;;0.70;0.70;;;15.50;99.90;;;15.73;nan;100055.13;4973053;28;20642;-64
2023/03/23 10:08:32;;;;;;;0.93;0.90;;;15.50;99.90;;;15.72;nan;100038.53;4974433;28;21199;-65
2023/03/23 10:11:49;;;;;;;0.80;0.80;;;15.50;99.90;;;15.74;nan;100041.03;4974172;28;20624;-65
2023/03/23 10:14:31;;;;;;;0.90;0.83;;;15.50;99.90;;;15.73;nan;100027.03;4941898;28;21082;-65
2023/03/23 10:17:22;;;;;;;0.90;0.90;;;15.50;99.90;;;15.80;nan;100030.66;4974203;28;20651;-65
2023/03/23 10:20:12;;;;;;;1.17;1.07;;;15.50;99.90;;;15.98;nan;100038.47;4972402;28;20614;-64
2023/03/23 10:23:19;;;;;;;1.00;1.00;;;15.70;99.90;;;16.02;nan;100024.00;4972474;28;20626;-62
2023/03/23 10:26:19;;;;;;;0.70;0.70;;;15.80;99.90;;;16.04;nan;100014.16;4940581;28;20651;-64
2023/03/23 10:28:52;;;;;;;0.50;0.43;;;15.80;99.90;;;15.94;nan;100013.47;4971108;28;20631;-64
2023/03/23 10:31:36;;;;;;;0.50;0.50;;;15.80;99.90;;;15.95;nan;100015.13;4974194;28;20630;-65
2023/03/23 10:34:41;;;;;;;0.70;0.70;;;15.60;99.90;;;16.20;nan;100022.94;4972709;28;21032;-65
2023/03/23 10:37:23;;;;;;;1.17;0.93;;;15.80;99.90;;;16.76;nan;100016.94;4951397;28;20698;-64
2023/03/23 10:39:58;;;;;;;0.90;0.90;;;16.30;99.90;;;17.15;nan;100018.88;4974044;28;21210;-65
2023/03/23 10:42:35;;;;;;;0.87;0.87;;;16.80;99.90;;;17.40;nan;100020.50;4972640;28;20639;-65
2023/03/23 10:45:21;;;;;;;0.90;0.90;;;17.00;99.90;;;17.43;nan;100022.78;4969458;28;20651;-64
2023/03/23 10:47:56;;;;;;;0.77;0.77;;;17.10;99.90;;;17.20;nan;100022.69;4954363;28;20633;-65
2023/03/23 10:50:29;;;;;;;1.00;0.90;;;17.00;99.90;;;16.95;nan;100029.78;4969148;28;20600;-62